createdAt,value
2023-04-03T00:00:50.766Z,102404.16
2023-04-03T00:03:18.888Z,102399.72
2023-04-03T00:05:47.099Z,102399.69
2023-04-03T00:08:13.656Z,102408.22
2023-04-03T00:10:40.214Z,102409.31
2023-04-03T00:13:07.915Z,102405.00
2023-04-03T00:15:35.722Z,102408.44
2023-04-03T00:18:02.733Z,102406.00
2023-04-03T00:20:29.300Z,102410.31
2023-04-03T00:22:56.031Z,102409.41
2023-04-03T00:25:22.887Z,102405.19
2023-04-03T00:27:49.393Z,102408.66
2023-04-03T00:30:18.259Z,102410.38
2023-04-03T00:32:45.049Z,102415.56
2023-04-03T00:35:11.986Z,102412.97
2023-04-03T00:37:38.448Z,102410.25
2023-04-03T00:40:05.680Z,102410.38
2023-04-03T00:42:32.238Z,102420.91
2023-04-03T00:44:58.834Z,102407.81
2023-04-03T00:47:26.344Z,102408.78
2023-04-03T00:49:53.369Z,102409.69
2023-04-03T00:52:24.234Z,102409.66
2023-04-03T00:54:55.492Z,102414.00
2023-04-03T00:57:23.382Z,102407.88
2023-04-03T00:59:52.877Z,102420.22
2023-04-03T01:02:19.749Z,102409.00
2023-04-03T01:04:48.137Z,102417.72
2023-04-03T01:07:32.274Z,102421.00
2023-04-03T01:10:02.745Z,102412.31
2023-04-03T01:12:38.316Z,102411.47
2023-04-03T01:15:09.318Z,102421.09
2023-04-03T01:17:40.146Z,102418.56
2023-04-03T01:20:12.742Z,102416.13
2023-04-03T01:22:59.854Z,102415.88
2023-04-03T01:25:27.371Z,102412.31
2023-04-03T01:27:54.302Z,102419.34
2023-04-03T01:30:24.731Z,102416.88
2023-04-03T01:32:51.369Z,102412.59
2023-04-03T01:35:17.933Z,102412.56
2023-04-03T01:37:44.394Z,102418.63
2023-04-03T01:40:11.173Z,102423.88
2023-04-03T01:42:37.644Z,102424.69
2023-04-03T01:45:04.472Z,102420.47
2023-04-03T01:47:31.009Z,102427.44
2023-04-03T01:49:57.484Z,102430.81
2023-04-03T01:52:24.022Z,102423.78
2023-04-03T01:54:51.419Z,102433.59
2023-04-03T01:57:17.904Z,102440.56
2023-04-03T01:59:44.697Z,102442.16
2023-04-03T02:02:13.295Z,102443.94
2023-04-03T02:04:39.848Z,102443.19
2023-04-03T02:07:06.677Z,102446.75
2023-04-03T02:09:33.102Z,102445.78
2023-04-03T02:11:59.583Z,102444.06
2023-04-03T02:14:28.347Z,102445.84
2023-04-03T02:16:55.263Z,102450.22
2023-04-03T02:19:21.773Z,102445.94
2023-04-03T02:21:48.231Z,102442.50
2023-04-03T02:24:14.645Z,102445.09
2023-04-03T02:26:41.070Z,102443.38
2023-04-03T02:29:07.505Z,102448.69
2023-04-03T02:31:34.061Z,102443.53
2023-04-03T02:34:00.489Z,102442.69
2023-04-03T02:36:26.985Z,102454.94
2023-04-03T02:38:53.703Z,102462.00
2023-04-03T02:41:20.102Z,102469.00
2023-04-03T02:43:46.536Z,102461.19
2023-04-03T02:46:15.149Z,102473.41
2023-04-03T02:48:41.875Z,102470.84
2023-04-03T02:51:08.323Z,102477.81
2023-04-03T02:53:34.908Z,102483.13
2023-04-03T02:56:01.456Z,102481.38
2023-04-03T02:58:28.007Z,102480.38
2023-04-03T03:00:54.936Z,102477.81
2023-04-03T03:03:21.373Z,102484.88
2023-04-03T03:05:49.108Z,102475.28
2023-04-03T03:08:15.681Z,102478.75
2023-04-03T03:10:42.078Z,102481.34
2023-04-03T03:13:08.686Z,102484.94
2023-04-03T03:15:35.367Z,102487.72
2023-04-03T03:18:01.965Z,102482.50
2023-04-03T03:20:28.495Z,102490.34
2023-04-03T03:22:54.925Z,102493.75
2023-04-03T03:25:21.432Z,102495.53
2023-04-03T03:27:47.945Z,102498.09
2023-04-03T03:30:14.578Z,102491.94
2023-04-03T03:32:41.236Z,102496.56
2023-04-03T03:35:08.117Z,102494.78
2023-04-03T03:37:34.628Z,102491.31
2023-04-03T03:40:01.077Z,102499.22
2023-04-03T03:42:27.653Z,102501.81
2023-04-03T03:44:54.125Z,102500.13
2023-04-03T03:47:21.145Z,102499.22
2023-04-03T03:49:47.610Z,102501.84
2023-04-03T03:52:14.313Z,102498.38
2023-04-03T03:54:40.917Z,102505.38
2023-04-03T03:57:07.507Z,102504.47
2023-04-03T03:59:34.018Z,102500.13
2023-04-03T04:02:00.633Z,102500.19
2023-04-03T04:04:27.119Z,102498.56
2023-04-03T04:06:53.600Z,102494.16
2023-04-03T04:09:20.490Z,102497.66
2023-04-03T04:11:46.966Z,102492.41
2023-04-03T04:14:14.387Z,102494.06
2023-04-03T04:16:40.987Z,102500.34
2023-04-03T04:19:08.891Z,102498.69
2023-04-03T04:21:35.637Z,102501.25
2023-04-03T04:24:02.144Z,102497.78
2023-04-03T04:26:28.640Z,102500.28
2023-04-03T04:28:55.121Z,102505.69
2023-04-03T04:31:21.743Z,102498.63
2023-04-03T04:33:48.246Z,102504.88
2023-04-03T04:36:15.814Z,102508.31
2023-04-03T04:38:43.169Z,102504.88
2023-04-03T04:41:09.641Z,102516.19
2023-04-03T04:43:36.513Z,102511.84
2023-04-03T04:46:13.740Z,102505.78
2023-04-03T04:48:41.349Z,102513.56
2023-04-03T04:51:08.100Z,102525.97
2023-04-03T04:53:34.821Z,102528.44
2023-04-03T04:56:01.341Z,102525.72
2023-04-03T04:58:27.928Z,102523.16
2023-04-03T05:01:09.382Z,102522.09
2023-04-03T05:03:36.427Z,102533.59
2023-04-03T05:06:03.549Z,102529.31
2023-04-03T05:08:30.640Z,102520.56
2023-04-03T05:10:57.170Z,102528.41
2023-04-03T05:13:23.713Z,102538.78
2023-04-03T05:15:50.328Z,102530.84
2023-04-03T05:18:16.824Z,102530.06
2023-04-03T05:20:44.352Z,102534.41
2023-04-03T05:23:12.290Z,102539.63
2023-04-03T05:25:39.598Z,102536.09
2023-04-03T05:28:06.268Z,102542.97
2023-04-03T05:30:32.716Z,102542.84
2023-04-03T05:33:00.354Z,102546.28
2023-04-03T05:35:26.841Z,102543.78
2023-04-03T05:51:27.025Z,102561.97
2023-04-03T05:54:01.141Z,102560.06
2023-04-03T06:15:56.640Z,102577.41
2023-04-03T06:21:08.998Z,102574.19
2023-04-03T06:23:35.753Z,102578.75
2023-04-03T06:26:02.632Z,102574.66
2023-04-03T06:28:29.118Z,102584.41
2023-04-03T06:30:55.634Z,102583.25
2023-04-03T06:33:22.113Z,102578.06
2023-04-03T06:35:48.551Z,102580.84
2023-04-03T06:38:15.014Z,102589.09
2023-04-03T06:40:41.455Z,102593.03
2023-04-03T06:43:08.533Z,102587.00
2023-04-03T06:45:35.132Z,102600.53
2023-04-03T06:48:02.358Z,102597.44
2023-04-03T06:50:29.203Z,102601.63
2023-04-03T06:52:55.674Z,102607.16
2023-04-03T06:55:22.587Z,102613.31
2023-04-03T06:57:49.071Z,102610.16
2023-04-03T07:00:17.192Z,102616.50
2023-04-03T07:02:43.730Z,102614.69
2023-04-03T07:05:10.552Z,102627.19
2023-04-03T07:07:37.065Z,102624.38
2023-04-03T07:10:03.841Z,102633.84
2023-04-03T07:12:30.651Z,102630.00
2023-04-03T07:14:57.241Z,102633.34
2023-04-03T07:17:23.787Z,102631.44
2023-04-03T07:19:50.501Z,102632.81
2023-04-03T07:22:17.187Z,102625.56
2023-04-03T07:24:43.605Z,102626.56
2023-04-03T07:27:10.938Z,102624.75
2023-04-03T07:29:37.528Z,102640.25
2023-04-03T07:32:04.638Z,102630.72
2023-04-03T07:34:31.654Z,102635.63
2023-04-03T07:36:58.812Z,102634.50
2023-04-03T07:39:25.843Z,102634.28
2023-04-03T07:41:52.545Z,102638.16
2023-04-03T07:44:19.115Z,102645.31
2023-04-03T07:46:45.958Z,102646.09
2023-04-03T07:49:12.456Z,102641.50
2023-04-03T07:51:38.919Z,102637.13
2023-04-03T07:54:05.394Z,102650.78
2023-04-03T07:56:33.002Z,102650.53
2023-04-03T07:58:59.476Z,102656.09
2023-04-03T08:01:26.029Z,102653.84
2023-04-03T08:03:52.758Z,102649.84
2023-04-03T08:06:26.149Z,102656.75
2023-04-03T08:09:00.136Z,102646.94
2023-04-03T08:11:27.436Z,102644.66
2023-04-03T08:13:54.213Z,102638.69
2023-04-03T08:16:23.720Z,102641.94
2023-04-03T08:18:50.273Z,102640.19
2023-04-03T08:21:17.984Z,102649.84
2023-04-03T08:23:44.437Z,102645.00
2023-04-03T08:26:16.741Z,102645.84
2023-04-03T08:28:43.242Z,102648.56
2023-04-03T08:31:13.012Z,102641.56
2023-04-03T08:33:40.268Z,102650.72
2023-04-03T08:36:08.972Z,102642.94
2023-04-03T08:38:38.207Z,102642.91
2023-04-03T08:41:14.373Z,102642.63
2023-04-03T08:44:14.072Z,102636.53
2023-04-03T08:46:55.684Z,102637.94
2023-04-03T08:49:33.597Z,102634.28
2023-04-03T08:52:04.798Z,102632.63
2023-04-03T08:54:35.481Z,102639.09
2023-04-03T08:57:06.320Z,102635.09
2023-04-03T08:59:38.169Z,102639.50
2023-04-03T09:02:36.448Z,102637.22
2023-04-03T09:05:12.240Z,102632.56
2023-04-03T09:07:46.817Z,102637.03
2023-04-03T09:10:16.910Z,102641.16
2023-04-03T09:12:54.362Z,102642.94
2023-04-03T09:15:37.717Z,102632.72
2023-04-03T09:18:11.537Z,102639.28
2023-04-03T09:20:52.841Z,102630.34
2023-04-03T09:23:25.890Z,102631.41
2023-04-03T09:25:57.718Z,102633.69
2023-04-03T09:28:24.263Z,102628.88
2023-04-03T09:30:50.777Z,102636.41
2023-04-03T09:33:18.579Z,102627.94
2023-04-03T09:35:48.664Z,102634.06
2023-04-03T09:38:19.185Z,102633.34
2023-04-03T09:40:52.235Z,102624.94
2023-04-03T09:43:18.955Z,102629.44
2023-04-03T09:45:46.996Z,102630.91
2023-04-03T09:48:16.254Z,102627.31
2023-04-03T09:50:56.587Z,102615.13
2023-04-03T09:53:42.010Z,102627.09
2023-04-03T09:56:14.653Z,102618.69
2023-04-03T09:58:50.318Z,102622.84
2023-04-03T10:01:34.529Z,102620.84
2023-04-03T10:04:11.813Z,102624.53
2023-04-03T10:06:44.304Z,102616.00
2023-04-03T10:09:27.131Z,102614.63
2023-04-03T10:12:02.254Z,102612.38
2023-04-03T10:14:33.303Z,102606.63
2023-04-03T10:17:37.472Z,102616.16
2023-04-03T10:20:27.301Z,102601.66
2023-04-03T10:23:05.392Z,102609.69
2023-04-03T10:25:48.782Z,102599.19
2023-04-03T10:28:47.010Z,102592.50
2023-04-03T10:31:22.012Z,102597.28
2023-04-03T10:34:06.973Z,102586.72
2023-04-03T10:37:03.505Z,102589.75
2023-04-03T10:39:36.024Z,102595.53
2023-04-03T10:42:17.338Z,102586.44
2023-04-03T10:44:52.341Z,102586.94
2023-04-03T10:47:47.936Z,102583.09
2023-04-03T10:50:39.978Z,102577.94
2023-04-03T10:53:18.665Z,102580.84
2023-04-03T10:55:52.867Z,102573.00
2023-04-03T10:58:30.663Z,102571.25
2023-04-03T11:01:07.385Z,102577.16
2023-04-03T11:03:37.931Z,102572.22
2023-04-03T11:06:10.827Z,102560.63
2023-04-03T11:08:40.725Z,102571.47
2023-04-03T11:11:12.745Z,102559.69
2023-04-03T11:13:53.804Z,102555.88
2023-04-03T11:16:35.679Z,102561.59
2023-04-03T11:19:24.437Z,102551.63
2023-04-03T11:22:03.195Z,102559.56
2023-04-03T11:24:33.931Z,102548.09
2023-04-03T11:27:04.670Z,102553.38
2023-04-03T11:29:38.912Z,102550.13
2023-04-03T11:32:44.243Z,102547.91
2023-04-03T11:35:11.822Z,102552.69
2023-04-03T11:37:47.197Z,102540.25
2023-04-03T11:40:16.488Z,102547.06
2023-04-03T11:42:46.994Z,102541.94
2023-04-03T11:45:22.855Z,102543.19
2023-04-03T11:47:52.539Z,102541.34
2023-04-03T11:50:37.675Z,102551.25
2023-04-03T11:53:07.369Z,102543.88
2023-04-03T11:55:33.951Z,102545.66
2023-04-03T11:58:00.575Z,102550.91
2023-04-03T12:00:56.153Z,102542.31
2023-04-03T12:03:28.774Z,102537.03
2023-04-03T12:06:05.586Z,102539.22
2023-04-03T12:08:35.049Z,102536.41
2023-04-03T12:11:10.882Z,102531.75
2023-04-03T12:13:43.350Z,102532.22
2023-04-03T12:16:23.555Z,102539.34
2023-04-03T12:18:50.104Z,102537.59
2023-04-03T12:21:22.353Z,102548.22
2023-04-03T12:24:07.872Z,102545.56
2023-04-03T12:26:48.794Z,102536.94
2023-04-03T12:29:22.794Z,102539.97
2023-04-03T12:32:04.306Z,102540.50
2023-04-03T12:34:53.695Z,102534.22
2023-04-03T12:37:44.713Z,102532.78
2023-04-03T12:40:30.137Z,102537.69
2023-04-03T12:43:07.149Z,102528.88
2023-04-03T12:46:13.121Z,102533.19
2023-04-03T12:48:57.362Z,102529.63
2023-04-03T12:51:30.592Z,102534.88
2023-04-03T12:54:14.059Z,102527.88
2023-04-03T12:56:40.875Z,102542.66
2023-04-03T12:59:22.617Z,102520.09
2023-04-03T13:01:56.744Z,102516.69
2023-04-03T13:04:23.614Z,102512.03
2023-04-03T13:06:50.825Z,102508.34
2023-04-03T13:09:28.906Z,102506.97
2023-04-03T13:12:10.055Z,102507.22
2023-04-03T13:14:37.463Z,102519.22
2023-04-03T13:17:13.502Z,102513.19
2023-04-03T13:19:40.914Z,102508.56
2023-04-03T13:22:20.958Z,102521.06
2023-04-03T13:24:50.753Z,102509.53
2023-04-03T13:27:18.632Z,102508.75
2023-04-03T13:29:52.312Z,102507.75
2023-04-03T13:32:23.947Z,102503.59
2023-04-03T13:34:50.373Z,102511.63
2023-04-03T13:37:26.012Z,102506.25
2023-04-03T13:40:07.503Z,102503.19
2023-04-03T13:42:37.562Z,102502.63
2023-04-03T13:45:28.782Z,102492.56
2023-04-03T13:51:18.363Z,102488.75
2023-04-03T13:53:51.707Z,102490.50
2023-04-03T13:56:33.847Z,102494.19
2023-04-03T13:59:35.088Z,102486.66
2023-04-03T14:02:04.716Z,102480.31
2023-04-03T14:04:54.231Z,102486.56
2023-04-03T14:07:22.216Z,102489.63
2023-04-03T14:09:49.656Z,102500.50
2023-04-03T14:12:31.781Z,102484.38
2023-04-03T14:15:03.099Z,102487.03
2023-04-03T14:17:29.926Z,102488.84
2023-04-03T14:19:58.325Z,102487.72
2023-04-03T14:22:27.474Z,102485.06
2023-04-03T14:24:53.981Z,102484.47
2023-04-03T14:27:43.099Z,102484.72
2023-04-03T14:30:15.631Z,102489.91
2023-04-03T14:32:42.526Z,102491.00
2023-04-03T14:35:09.075Z,102492.47
2023-04-03T14:37:36.406Z,102483.34
2023-04-03T14:40:06.311Z,102484.22
2023-04-03T14:42:35.838Z,102478.38
2023-04-03T14:45:04.940Z,102473.00
2023-04-03T14:47:32.616Z,102481.75
2023-04-03T14:50:01.879Z,102472.50
2023-04-03T14:52:32.852Z,102477.81
2023-04-03T14:55:01.316Z,102474.47
2023-04-03T14:57:29.592Z,102481.88
2023-04-03T14:59:56.740Z,102477.09
2023-04-03T15:02:26.838Z,102475.25
2023-04-03T15:04:54.702Z,102464.09
2023-04-03T15:07:21.537Z,102478.28
2023-04-03T15:09:48.185Z,102473.75
2023-04-03T15:14:52.429Z,102477.06
2023-04-03T15:17:23.516Z,102465.13
2023-04-03T15:19:50.136Z,102462.41
2023-04-03T15:22:19.184Z,102469.28
2023-04-03T15:24:46.653Z,102462.59
2023-04-03T15:27:14.414Z,102466.38
2023-04-03T15:29:42.755Z,102464.81
2023-04-03T15:32:10.084Z,102458.06
2023-04-03T15:34:37.871Z,102469.56
2023-04-03T15:37:04.605Z,102466.19
2023-04-03T15:39:31.169Z,102458.25
2023-04-03T15:42:00.879Z,102467.91
2023-04-03T15:44:27.328Z,102458.44
2023-04-03T15:46:53.904Z,102455.81
2023-04-03T15:49:21.777Z,102460.53
2023-04-03T15:51:48.662Z,102466.19
2023-04-03T15:54:16.345Z,102466.47
2023-04-03T15:56:42.952Z,102464.00
2023-04-03T15:59:09.772Z,102464.09
2023-04-03T16:01:37.682Z,102462.59
2023-04-03T16:04:05.438Z,102455.53
2023-04-03T16:06:32.774Z,102459.69
2023-04-03T16:08:59.289Z,102455.94
2023-04-03T16:11:27.125Z,102458.72
2023-04-03T16:13:54.903Z,102463.66
2023-04-03T16:16:22.339Z,102452.69
2023-04-03T16:18:49.241Z,102454.66
2023-04-03T16:21:17.524Z,102451.91
2023-04-03T16:23:45.240Z,102458.38
2023-04-03T16:26:11.771Z,102456.81
2023-04-03T16:28:38.288Z,102467.81
2023-04-03T16:31:06.782Z,102460.38
2023-04-03T16:33:33.773Z,102463.22
2023-04-03T16:36:00.657Z,102464.91
2023-04-03T16:38:27.297Z,102460.34
2023-04-03T16:40:57.502Z,102461.78
2023-04-03T16:43:24.103Z,102466.13
2023-04-03T16:45:50.536Z,102460.06
2023-04-03T16:48:17.149Z,102461.84
2023-04-03T16:50:48.904Z,102466.38
2023-04-03T16:53:16.343Z,102458.16
2023-04-03T16:55:42.830Z,102453.94
2023-04-03T16:58:10.540Z,102453.91
2023-04-03T17:00:37.554Z,102448.78
2023-04-03T17:03:04.659Z,102454.81
2023-04-03T17:05:31.303Z,102450.19
2023-04-03T17:07:57.834Z,102451.38
2023-04-03T17:10:24.897Z,102451.69
2023-04-03T17:12:51.337Z,102456.53
2023-04-03T17:15:17.981Z,102451.84
2023-04-03T17:17:44.515Z,102459.31
2023-04-03T17:20:11.477Z,102458.75
2023-04-03T17:22:37.917Z,102451.56
2023-04-03T17:25:05.412Z,102449.94
2023-04-03T17:27:31.941Z,102452.44
2023-04-03T17:29:58.590Z,102455.09
2023-04-03T17:32:26.459Z,102459.59
2023-04-03T17:34:54.361Z,102449.81
2023-04-03T17:37:20.887Z,102457.81
2023-04-03T17:39:47.403Z,102456.03
2023-04-03T17:42:13.874Z,102455.09
2023-04-03T17:44:40.504Z,102461.00
2023-04-03T17:47:07.216Z,102469.13
2023-04-03T17:49:33.797Z,102470.94
2023-04-03T17:52:00.416Z,102466.69
2023-04-03T17:54:26.946Z,102458.25
2023-04-03T17:56:53.550Z,102465.41
2023-04-03T17:59:20.083Z,102469.09
2023-04-03T18:01:47.588Z,102475.41
2023-04-03T18:04:14.684Z,102469.09
2023-04-03T18:06:49.769Z,102471.00
2023-04-03T18:09:28.864Z,102466.88
2023-04-03T18:11:56.412Z,102469.34
2023-04-03T18:14:25.568Z,102469.28
2023-04-03T18:16:52.153Z,102474.63
2023-04-03T18:19:23.451Z,102471.97
2023-04-03T18:21:57.156Z,102475.41
2023-04-03T18:24:26.121Z,102481.50
2023-04-03T18:27:00.252Z,102474.47
2023-04-03T18:29:29.304Z,102479.81
2023-04-03T18:31:56.941Z,102492.69
2023-04-03T18:34:23.487Z,102481.44
2023-04-03T18:36:50.237Z,102484.25
2023-04-03T18:39:16.966Z,102488.84
2023-04-03T18:41:43.709Z,102492.53
2023-04-03T18:44:14.525Z,102488.38
2023-04-03T18:46:41.139Z,102489.22
2023-04-03T18:49:09.199Z,102481.88
2023-04-03T18:51:35.908Z,102479.56
2023-04-03T18:54:03.484Z,102482.28
2023-04-03T18:56:30.816Z,102485.97
2023-04-03T18:58:57.568Z,102488.53
2023-04-03T19:01:24.128Z,102486.16
2023-04-03T19:03:50.771Z,102488.94
2023-04-03T19:06:17.388Z,102487.00
2023-04-03T19:08:43.953Z,102482.84
2023-04-03T19:11:11.156Z,102477.53
2023-04-03T19:13:46.517Z,102487.53
2023-04-03T19:16:24.384Z,102489.97
2023-04-03T19:18:50.963Z,102482.38
2023-04-03T19:21:18.266Z,102481.63
2023-04-03T19:23:45.053Z,102484.41
2023-04-03T19:26:13.591Z,102479.84
2023-04-03T19:28:41.587Z,102478.09
2023-04-03T19:31:16.683Z,102475.31
2023-04-03T19:33:44.377Z,102473.78
2023-04-03T19:36:11.963Z,102472.22
2023-04-03T19:38:38.508Z,102475.56
2023-04-03T19:41:17.356Z,102470.31
2023-04-03T19:43:44.226Z,102474.63
2023-04-03T19:46:11.088Z,102475.56
2023-04-03T19:48:38.008Z,102475.66
2023-04-03T19:51:05.998Z,102474.94
2023-04-03T19:53:32.638Z,102477.59
2023-04-03T19:55:59.242Z,102467.13
2023-04-03T19:58:29.849Z,102471.31
2023-04-03T20:00:58.051Z,102475.75
2023-04-03T20:03:25.507Z,102478.53
2023-04-03T20:05:52.685Z,102477.75
2023-04-03T20:08:20.525Z,102485.91
2023-04-03T20:10:47.126Z,102477.75
2023-04-03T20:13:13.911Z,102476.91
2023-04-03T20:15:42.403Z,102481.31
2023-04-03T20:18:17.968Z,102474.28
2023-04-03T20:20:52.537Z,102484.94
2023-04-03T20:23:19.281Z,102473.50
2023-04-03T20:25:57.530Z,102483.09
2023-04-03T20:28:28.947Z,102477.91
2023-04-03T20:30:55.715Z,102480.63
2023-04-03T20:33:23.848Z,102476.91
2023-04-03T20:35:50.637Z,102477.97
2023-04-03T20:38:17.381Z,102474.66
2023-04-03T20:40:44.093Z,102482.59
2023-04-03T20:43:10.729Z,102474.81
2023-04-03T20:45:37.404Z,102478.63
2023-04-03T20:48:05.823Z,102471.63
2023-04-03T20:50:34.171Z,102462.97
2023-04-03T20:53:01.897Z,102467.44
2023-04-03T20:55:28.428Z,102474.41
2023-04-03T20:58:00.656Z,102468.50
2023-04-03T21:00:28.859Z,102464.19
2023-04-03T21:02:57.824Z,102466.97
2023-04-03T21:05:26.355Z,102465.19
2023-04-03T21:08:31.951Z,102461.75
2023-04-03T21:11:36.402Z,102464.31
2023-04-03T21:14:40.397Z,102465.31
2023-04-03T21:17:06.754Z,102474.06
2023-04-03T21:19:33.582Z,102469.81
2023-04-03T21:22:00.948Z,102462.84
2023-04-03T21:24:27.586Z,102461.28
2023-04-03T21:26:57.831Z,102456.03
2023-04-03T21:29:24.375Z,102464.91
2023-04-03T21:31:58.054Z,102465.91
2023-04-03T21:34:26.191Z,102468.56
2023-04-03T21:36:55.362Z,102462.25
2023-04-03T21:39:22.159Z,102463.28
2023-04-03T21:41:52.393Z,102467.75
2023-04-03T21:44:19.908Z,102469.63
2023-04-03T21:46:47.996Z,102464.28
2023-04-03T21:49:14.997Z,102473.94
2023-04-03T21:51:41.926Z,102466.22
2023-04-03T21:54:08.552Z,102483.22
2023-04-03T21:56:35.018Z,102452.59
2023-04-03T21:59:02.813Z,102466.66
2023-04-03T22:01:30.485Z,102471.16
2023-04-03T22:03:58.917Z,102459.63
2023-04-03T22:06:26.567Z,102461.34
2023-04-03T22:08:53.269Z,102462.59
2023-04-03T22:11:22.975Z,102459.25
2023-04-03T22:13:53.063Z,102459.16
2023-04-03T22:16:42.390Z,102465.34
2023-04-03T22:19:09.108Z,102458.66
2023-04-03T22:21:36.373Z,102455.28
2023-04-03T22:24:03.088Z,102450.97
2023-04-03T22:26:29.532Z,102454.50
2023-04-03T22:28:56.288Z,102460.69
2023-04-03T22:31:22.959Z,102460.59
2023-04-03T22:33:49.424Z,102455.47
2023-04-03T22:36:16.036Z,102455.34
2023-04-03T22:38:46.804Z,102453.75
2023-04-03T22:41:13.405Z,102457.19
2023-04-03T22:43:40.256Z,102452.13
2023-04-03T22:46:09.064Z,102456.63
2023-04-03T22:48:37.321Z,102459.09
2023-04-03T22:51:09.903Z,102446.25
2023-04-03T22:53:37.015Z,102454.03
2023-04-03T22:56:08.321Z,102457.44
2023-04-03T22:58:35.057Z,102454.94
2023-04-03T23:01:07.577Z,102454.16
2023-04-03T23:03:36.117Z,102459.47
2023-04-03T23:06:04.022Z,102461.25
2023-04-03T23:08:32.514Z,102461.25
2023-04-03T23:10:59.338Z,102455.16
2023-04-03T23:13:26.419Z,102461.31
2023-04-03T23:16:00.978Z,102455.22
2023-04-03T23:18:31.668Z,102460.56
2023-04-03T23:21:03.917Z,102459.88
2023-04-03T23:23:31.039Z,102459.88
2023-04-03T23:26:00.332Z,102458.09
2023-04-03T23:28:27.676Z,102467.06
2023-04-03T23:31:00.278Z,102458.28
2023-04-03T23:33:27.572Z,102457.41
2023-04-03T23:35:54.184Z,102454.06
2023-04-03T23:38:20.962Z,102456.63
2023-04-03T23:40:48.186Z,102458.41
2023-04-03T23:43:14.807Z,102458.56
2023-04-03T23:45:41.898Z,102459.41
2023-04-03T23:48:08.934Z,102461.19
2023-04-03T23:50:35.422Z,102456.56
2023-04-03T23:53:01.942Z,102457.47
2023-04-03T23:55:28.435Z,102460.22
2023-04-03T23:57:54.969Z,102455.78
